No se requiere ningun cuidado especial respecto a la situación metereológica.   -   No hay avisos

Informes METAR

 

KSJC - San Jose, California, USA
Distancia de la estación: NE 14km
Actualización: 25/10/2021 02:53
Lluvia débil, Cubierto
Lluvia débil, Cubierto
 Viento de S
Viento: S 17 km/h, Racha: 31 km/h
Temperatura: 18°C
Rocío: 15°C
Humedad: 83%
Barómetro: 1002.7 hPa
Resumen: Lluvia débil
Nubes: Cubierto
Visibilidad: 11 km
Detalles de las nubes: Poco nuboso 0 m
Muy nuboso 914 m
Cubierto 1829 m
2021/10/25 00:53 KSJC 250053Z 18009G17KT 7SM -RA FEW000 BKN030 OVC060 18/15 A2961 RMK AO2 PK WND 16029/0013 SLP025 P0005 T01780150
KNUQ - Moffett Nas/Mtn, California, USA
Distancia de la estación: N 14km
Actualización: 22/10/2021 11:15
NOT Current
Cubierto
Cubierto
 Viento de ESE
Viento: ESE 22 km/h
Temperatura: 18°C
Rocío: 14°C
Humedad: 78%
Barómetro: 1015.6 hPa
Nubes: Cubierto
Visibilidad: 16 km
Detalles de las nubes: Poco nuboso 671 m
Cubierto 914 m
2021/10/22 09:15 KNUQ 220915Z AUTO 11012KT 10SM FEW022 OVC030 18/14 A2999 RMK AO2
 
KPAO - Palo Alto, California, USA
Distancia de la estación: NNO 23km
Actualización: 25/10/2021 02:47
Lluvia, Cubierto
Lluvia, Cubierto
 Viento de ONO
Viento: ONO 19 km/h, Racha: 31 km/h
Temperatura: 17°C
Rocío: 15°C
Humedad: 88%
Barómetro: 1003 hPa
Resumen: Lluvia
Nubes: Cubierto
Visibilidad: 3 km
Detalles de las nubes: Cubierto 457 m
2021/10/25 00:47 KPAO 250047Z 29010G17KT 2SM RA OVC015 17/15 A2962
KRHV - San Jose/Reid, California, USA
Distancia de la estación: ENE 19km
Actualización: 25/10/2021 02:50
Lluvia débil, Cubierto
Lluvia débil, Cubierto
 Viento de SE
Viento: SE 13 km/h, Racha: 30 km/h
Temperatura: 17°C
Rocío: 15°C
Humedad: 88%
Barómetro: 1003 hPa
Resumen: Lluvia débil
Nubes: Cubierto
Visibilidad: 8 km
Detalles de las nubes: Muy nuboso 610 m
Cubierto 1829 m
2021/10/25 00:50 KRHV 250050Z 14007G16KT 5SM -RA BKN020 OVC060 17/15 A2962
 
KOAK - Oakland, California, USA
Distancia de la estación: NNO 50km
Actualización: 25/10/2021 02:53
Lluvia intensa, Neblina, Cubierto
Lluvia intensa, Neblina, Cubierto
 Viento de O
Viento: O 22 km/h
Temperatura: 16°C
Rocío: 14°C
Humedad: 88%
Barómetro: 1003.4 hPa
Resumen: Lluvia intensa, Neblina
Nubes: Cubierto
Visibilidad: 4 km
Detalles de las nubes: Poco nuboso 183 m
Muy nuboso 457 m
Cubierto 792 m
2021/10/25 00:53 KOAK 250053Z 27012KT 2 1/2SM +RA BR FEW006 BKN015 OVC026 16/14 A2963 RMK AO2 SLP033 P0026 T01560139 $
KSQL - San Carlos Airpo, California, USA
Distancia de la estación: NO 34km
Actualización: 25/10/2021 02:48
Cubierto
Cubierto
 Viento de OSO
Viento: OSO 19 km/h, Racha: 31 km/h
Temperatura: 15°C
Rocío: 15°C
Humedad: 100%
Barómetro: 1003.7 hPa
Nubes: Cubierto
Visibilidad: 3 km
Detalles de las nubes: Parcialmente nuboso 122 m
Cubierto 945 m
2021/10/25 00:48 KSQL 250048Z 24010G17KT 2SM SCT004 OVC031 15/15 A2964 -RA BR
 
KSFO - San Francisco, California, USA
Distancia de la estación: NO 49km
Actualización: 25/10/2021 02:56
Lluvia, Neblina, Cubierto
Lluvia, Neblina, Cubierto
 Viento de O
Viento: O 20 km/h
Temperatura: 16°C
Rocío: 13°C
Humedad: 83%
Barómetro: 1002.7 hPa
Resumen: Lluvia, Neblina
Nubes: Cubierto
Visibilidad: 5 km
Detalles de las nubes: Poco nuboso 366 m
Parcialmente nuboso 853 m
Cubierto 1554 m
2021/10/25 00:56 KSFO 250056Z 26011KT 3SM RA BR FEW012 SCT028 OVC051 16/13 A2961 RMK AO2 SLP027 P0031 T01560133
KE16 - San Martin, California, USA
Distancia de la estación: ESE 43km
Actualización: 25/10/2021 02:55
Calima, Cubierto
Calima, Cubierto
 Viento de S
Viento: S 24 km/h, Racha: 50 km/h
Temperatura: 18°C
Rocío: 15°C
Humedad: 83%
Barómetro: 1004.1 hPa
Resumen: Calima
Nubes: Cubierto
Visibilidad: 8 km
Detalles de las nubes: Muy nuboso 732 m
Cubierto 945 m
2021/10/25 00:55 KE16 250055Z AUTO 18013G27KT 5SM HZ BKN024 OVC031 18/15 A2965 RMK AO2 PWINO PNO
 
KWVI - Watsonville, California, USA
Distancia de la estación: SSE 44km
Actualización: 25/10/2021 02:53
Cubierto
Cubierto
 Viento de SSO
Viento: SSO 37 km/h, Racha: 59 km/h
Temperatura: 19°C
Rocío: 15°C
Humedad: 78%
Barómetro: 1004.1 hPa
Nubes: Cubierto
Visibilidad: 16 km
Detalles de las nubes: Muy nuboso 762 m
Cubierto 1006 m
2021/10/25 00:53 KWVI 250053Z AUTO 20020G32KT 10SM BKN025 OVC033 19/15 A2965 RMK AO2 PK WND 21036/0034 SLP040 T01890150
KHAF - Half Moon Bay, California, USA
Distancia de la estación: ONO 50km
Actualización: 25/10/2021 02:55
Lluvia, Neblina, Cubierto
Lluvia, Neblina, Cubierto
 Viento de O
Viento: O 9 km/h, Racha: 19 km/h
Temperatura: 14°C
Rocío: 14°C
Humedad: 100%
Barómetro: 1003.7 hPa
Resumen: Lluvia, Neblina
Nubes: Cubierto
Visibilidad: 1.2 km
Detalles de las nubes: Cubierto 91 m
2021/10/25 00:55 KHAF 250055Z AUTO 27005G10KT 3/4SM RA BR OVC003 14/14 A2964 RMK AO2 P0031
 
KHWD - Hayward, California, USA
Distancia de la estación: N 44km
Actualización: 25/10/2021 03:09
Lluvia, Neblina, Cubierto
Lluvia, Neblina, Cubierto
 Viento de O
Viento: O 17 km/h
Temperatura: 14°C
Rocío: 14°C
Humedad: 100%
Barómetro: 1003.4 hPa
Resumen: Lluvia, Neblina
Nubes: Cubierto
Visibilidad: 6 km
Detalles de las nubes: Poco nuboso 701 m
Cubierto 853 m
2021/10/25 01:09 KHWD 250109Z 27009KT 4SM RA BR FEW023 OVC028 14/14 A2963 RMK AO2 P0004 T01440139
KLVK - Livermore, California, USA
Distancia de la estación: NNE 51km
Actualización: 25/10/2021 02:53
Lluvia intensa, Neblina, Cubierto
Lluvia intensa, Neblina, Cubierto
 Viento de SO
Viento: SO 31 km/h, Racha: 50 km/h
Temperatura: 17°C
Rocío: 15°C
Humedad: 88%
Barómetro: 1002 hPa
Resumen: Lluvia intensa, Neblina
Nubes: Cubierto
Visibilidad: 3 km
Detalles de las nubes: Cubierto 853 m
2021/10/25 00:53 KLVK 250053Z 23017G27KT 2SM +RA BR OVC028 17/15 A2959 RMK AO2 PK WND 21027/0045 SLP017 P0058 T01670150